Rogersville, Canada
Current Conditions -  °F | °C
As of 10:00 AM on Monday 22 Dec 2014 (Local Time) from CYQM Reporting Station
Broken Clouds Broken Clouds  
Wind Chill: 27°   Ceiling: 2500
Heat Index: 27°   Visibility: 15mi
Dew Point: 23°   Wind: 3mph
Humidity: 86%   Direction: 30°NNE
Pressure: 30.47"   Gusts: NA
Location:  46.72°N, 65.42°W
Report Text: CYQM 221400Z 03003KT 15SM BKN025 BKN032 M03/M05 A3047 RMK SC6SC1 SLP324
Loading
Personal Weather Stations






























Interactive Weather Map New forecast layout! Learn more

10-Day Weather Forecast

Advertisements
Track Severe Weather on mobile